LDPV weather

Vrsar Crljenka Airport
Vrsar, Istria County, Croatia

Public forecast

Using degrees Celsius for public forecast. Weather courtesy of forecast.io.

METAR (pilot weather report)

Closest report is Pula Airport, 19.4 nm (35.9 km) SE. Retrieved 2019/05/23 12:30 UTC (25 minutes ago):

LDPL 231230Z 27009KT 9999 FEW035 21/13 Q1015 NOSIG

TAF (pilot weather forecast)

Closest forecast is Pula Airport, 19.4 nm (35.9 km) SE. Retrieved 2019/05/23 12:27 UTC (28 minutes ago):

TAF LDPL 231125Z 2312/2412 27008KT 9999 FEW030 TX21/2312Z TN11/2404Z PROB30 TEMPO 2312/2316 TSRA FEW030CB BECMG 2316/2318 VRB02KT BECMG 2411/2412 27008KT